createdAt,value
2022-10-14T00:01:51.775Z,11.51
2022-10-14T00:04:57.203Z,11.54
2022-10-14T00:08:02.298Z,11.51
2022-10-14T00:11:11.135Z,11.45
2022-10-14T00:14:19.257Z,11.49
2022-10-14T00:17:28.099Z,11.47
2022-10-14T00:20:32.843Z,11.49
2022-10-14T00:23:38.449Z,11.45
2022-10-14T00:26:44.832Z,11.42
2022-10-14T00:29:49.767Z,11.39
2022-10-14T00:32:54.490Z,11.38
2022-10-14T00:36:01.378Z,11.41
2022-10-14T00:39:13.102Z,11.32
2022-10-14T00:42:19.535Z,11.33
2022-10-14T00:45:27.143Z,11.33
2022-10-14T00:48:32.383Z,11.32
2022-10-14T00:51:39.542Z,11.32
2022-10-14T00:54:47.471Z,11.36
2022-10-14T00:57:53.628Z,11.36
2022-10-14T01:04:44.600Z,11.29
2022-10-14T01:08:02.011Z,11.28
2022-10-14T01:11:14.257Z,11.25
2022-10-14T01:14:31.382Z,11.25
2022-10-14T01:17:45.908Z,11.29
2022-10-14T01:21:04.942Z,11.30
2022-10-14T01:24:44.119Z,11.29
2022-10-14T01:28:04.743Z,11.27
2022-10-14T01:31:16.375Z,11.26
2022-10-14T01:34:28.690Z,11.20
2022-10-14T01:37:35.937Z,11.17
2022-10-14T01:40:47.701Z,11.16
2022-10-14T01:43:56.662Z,11.16
2022-10-14T01:47:04.155Z,11.10
2022-10-14T01:50:13.152Z,11.19
2022-10-14T01:53:21.903Z,11.19
2022-10-14T01:56:27.899Z,11.18
2022-10-14T01:59:33.559Z,11.08
2022-10-14T02:02:40.348Z,11.04
2022-10-14T02:05:51.429Z,11.11
2022-10-14T02:09:09.652Z,11.04
2022-10-14T02:12:28.364Z,11.11
2022-10-14T02:15:37.919Z,11.12
2022-10-14T02:18:52.860Z,11.03
2022-10-14T02:22:02.912Z,11.07
2022-10-14T02:25:18.185Z,11.03
2022-10-14T02:28:27.745Z,11.05
2022-10-14T02:31:33.984Z,11.10
2022-10-14T02:34:41.047Z,11.16
2022-10-14T02:37:50.091Z,11.17
2022-10-14T02:40:55.360Z,11.14
2022-10-14T02:44:00.108Z,11.15
2022-10-14T02:47:05.288Z,11.12
2022-10-14T02:50:13.620Z,11.14
2022-10-14T02:53:19.106Z,11.14
2022-10-14T02:56:23.930Z,11.15
2022-10-14T02:59:29.115Z,11.15
2022-10-14T03:02:35.260Z,11.14
2022-10-14T03:05:43.792Z,11.16
2022-10-14T03:08:51.647Z,11.19
2022-10-14T03:11:57.218Z,11.19
2022-10-14T03:15:02.330Z,11.08
2022-10-14T03:18:07.765Z,11.14
2022-10-14T03:21:22.012Z,11.09
2022-10-14T03:24:27.391Z,11.12
2022-10-14T03:27:52.262Z,11.04
2022-10-14T03:31:00.950Z,11.07
2022-10-14T03:34:29.020Z,11.11
2022-10-14T03:37:43.988Z,11.12
2022-10-14T03:40:49.439Z,11.14
2022-10-14T03:43:54.872Z,11.07
2022-10-14T03:47:00.375Z,11.14
2022-10-14T03:50:11.016Z,11.15
2022-10-14T03:53:23.239Z,11.15
2022-10-14T03:56:29.035Z,11.17
2022-10-14T03:59:34.132Z,11.13
2022-10-14T04:02:39.603Z,11.06
2022-10-14T04:05:48.544Z,11.15
2022-10-14T04:08:58.330Z,11.12
2022-10-14T04:12:08.540Z,11.06
2022-10-14T04:15:31.184Z,11.06
2022-10-14T04:18:47.858Z,11.08
2022-10-14T04:21:57.184Z,11.06
2022-10-14T04:25:08.366Z,11.06
2022-10-14T04:28:15.455Z,11.03
2022-10-14T04:31:34.608Z,11.00
2022-10-14T04:34:41.205Z,10.99
2022-10-14T04:37:48.298Z,10.92
2022-10-14T04:41:01.556Z,10.95
2022-10-14T04:44:08.180Z,10.93
2022-10-14T04:47:20.842Z,10.92
2022-10-14T04:50:33.644Z,10.92
2022-10-14T04:54:04.730Z,10.95
2022-10-14T04:57:32.412Z,10.91
2022-10-14T05:00:37.424Z,10.93
2022-10-14T05:04:02.395Z,10.83
2022-10-14T05:07:08.825Z,10.79
2022-10-14T05:10:15.091Z,10.65
2022-10-14T05:13:21.959Z,10.65
2022-10-14T05:16:36.119Z,10.64
2022-10-14T05:19:41.789Z,10.63
2022-10-14T05:22:47.160Z,10.64
2022-10-14T05:25:52.912Z,10.64
2022-10-14T05:28:59.834Z,10.67
2022-10-14T05:32:07.433Z,10.66
2022-10-14T05:35:57.162Z,10.59
2022-10-14T05:38:58.975Z,10.57
2022-10-14T05:42:12.247Z,10.56
2022-10-14T05:45:20.420Z,10.59
2022-10-14T05:48:30.782Z,10.49
2022-10-14T05:51:36.448Z,10.41
2022-10-14T05:54:48.693Z,10.44
2022-10-14T05:57:58.903Z,10.49
2022-10-14T06:01:14.627Z,10.45
2022-10-14T06:04:22.184Z,10.47
2022-10-14T06:07:27.187Z,10.42
2022-10-14T06:10:32.291Z,10.44
2022-10-14T06:13:38.331Z,10.42
2022-10-14T06:16:48.862Z,10.42
2022-10-14T06:19:53.832Z,10.42
2022-10-14T06:23:00.509Z,10.38
2022-10-14T06:26:07.573Z,10.41
2022-10-14T06:29:13.252Z,10.41
2022-10-14T06:32:19.626Z,10.42
2022-10-14T06:35:24.792Z,10.51
2022-10-14T06:38:29.909Z,10.49
2022-10-14T06:41:34.726Z,10.52
2022-10-14T06:44:39.839Z,10.57
2022-10-14T06:47:45.915Z,10.65
2022-10-14T06:50:51.106Z,10.73
2022-10-14T06:53:56.206Z,10.78
2022-10-14T06:57:01.187Z,10.88
2022-10-14T07:00:07.610Z,10.92
2022-10-14T07:03:16.548Z,10.98
2022-10-14T07:06:21.612Z,11.02
2022-10-14T07:09:26.395Z,11.06
2022-10-14T07:12:31.248Z,11.05
2022-10-14T07:15:36.242Z,11.02
2022-10-14T07:18:42.644Z,11.06
2022-10-14T07:21:47.650Z,11.00
2022-10-14T07:24:52.589Z,10.99
2022-10-14T07:27:57.395Z,10.97
2022-10-14T07:31:04.617Z,10.98
2022-10-14T07:34:11.078Z,10.94
2022-10-14T07:37:16.908Z,10.92
2022-10-14T07:40:22.333Z,10.93
2022-10-14T07:43:27.148Z,10.94
2022-10-14T07:46:33.140Z,10.96
2022-10-14T07:49:39.482Z,10.97
2022-10-14T07:52:44.298Z,11.04
2022-10-14T07:55:52.275Z,11.10
2022-10-14T07:58:57.655Z,11.11
2022-10-14T08:02:02.481Z,11.05
2022-10-14T08:05:32.763Z,11.12
2022-10-14T08:08:34.543Z,11.15
2022-10-14T08:11:39.590Z,11.17
2022-10-14T08:14:44.424Z,11.18
2022-10-14T08:17:49.235Z,11.22
2022-10-14T08:20:55.800Z,11.24
2022-10-14T08:24:00.729Z,11.30
2022-10-14T08:27:07.311Z,11.26
2022-10-14T08:30:13.682Z,11.27
2022-10-14T08:33:19.555Z,11.38
2022-10-14T08:36:26.081Z,11.38
2022-10-14T08:39:30.764Z,11.42
2022-10-14T08:42:44.092Z,11.43
2022-10-14T08:45:54.288Z,11.48
2022-10-14T08:49:06.823Z,11.50
2022-10-14T08:52:17.118Z,11.53
2022-10-14T08:55:30.664Z,11.59
2022-10-14T08:58:39.072Z,11.61
2022-10-14T09:01:52.731Z,11.60
2022-10-14T09:04:58.512Z,11.60
2022-10-14T09:08:04.751Z,11.63
2022-10-14T09:11:16.380Z,11.62
2022-10-14T09:14:24.540Z,11.61
2022-10-14T09:17:35.569Z,11.66
2022-10-14T09:20:43.323Z,11.69
2022-10-14T09:23:49.707Z,11.91
2022-10-14T09:26:58.371Z,11.93
2022-10-14T09:30:10.441Z,11.97
2022-10-14T09:33:21.320Z,12.01
2022-10-14T09:36:26.391Z,12.02
2022-10-14T09:39:40.842Z,11.98
2022-10-14T09:42:51.580Z,12.00
2022-10-14T09:45:59.781Z,12.06
2022-10-14T09:49:04.596Z,12.11
2022-10-14T09:52:20.632Z,12.28
2022-10-14T09:55:26.906Z,12.45
2022-10-14T09:58:34.605Z,12.40
2022-10-14T10:01:42.635Z,12.48
2022-10-14T10:04:48.276Z,12.45
2022-10-14T10:08:12.319Z,12.49
2022-10-14T10:11:29.389Z,12.58
2022-10-14T10:14:35.749Z,12.55
2022-10-14T10:17:41.666Z,12.65
2022-10-14T10:21:06.783Z,12.61
2022-10-14T10:24:25.927Z,12.65
2022-10-14T10:27:37.945Z,12.74
2022-10-14T10:30:50.152Z,12.74
2022-10-14T10:34:01.865Z,12.73
2022-10-14T10:37:14.641Z,12.80
2022-10-14T10:40:40.050Z,12.76
2022-10-14T10:44:16.717Z,12.80
2022-10-14T10:47:35.054Z,12.90
2022-10-14T10:50:49.718Z,12.89
2022-10-14T10:54:07.051Z,12.90
2022-10-14T10:57:30.453Z,12.94
2022-10-14T11:00:47.189Z,12.96
2022-10-14T11:04:05.121Z,12.99
2022-10-14T11:07:35.539Z,13.02
2022-10-14T11:11:08.693Z,13.23
2022-10-14T11:14:32.026Z,13.41
2022-10-14T11:17:46.690Z,13.51
2022-10-14T11:21:05.967Z,13.58
2022-10-14T11:24:19.700Z,13.58
2022-10-14T11:27:31.507Z,13.56
2022-10-14T11:30:45.106Z,13.53
2022-10-14T11:34:05.502Z,13.54
2022-10-14T11:37:26.406Z,13.58
2022-10-14T11:40:40.390Z,13.67
2022-10-14T11:43:51.139Z,13.72
2022-10-14T11:46:58.748Z,13.86
2022-10-14T11:50:15.029Z,13.86
2022-10-14T11:53:24.043Z,13.90
2022-10-14T11:56:38.984Z,13.94
2022-10-14T11:59:49.092Z,13.91
2022-10-14T12:02:58.029Z,13.90
2022-10-14T12:06:10.711Z,13.79
2022-10-14T12:09:23.680Z,13.81
2022-10-14T12:12:30.715Z,13.79
2022-10-14T12:15:35.993Z,13.72
2022-10-14T12:18:41.217Z,13.74
2022-10-14T12:21:53.111Z,13.75
2022-10-14T12:25:04.223Z,13.79
2022-10-14T12:28:12.835Z,13.82
2022-10-14T12:31:35.633Z,13.84
2022-10-14T12:34:41.224Z,13.87
2022-10-14T12:37:54.529Z,13.95
2022-10-14T12:41:36.167Z,13.86
2022-10-14T12:44:48.227Z,13.89
2022-10-14T12:48:09.084Z,13.91
2022-10-14T12:51:15.978Z,13.94
2022-10-14T12:54:22.602Z,14.02
2022-10-14T12:57:31.851Z,14.06
2022-10-14T13:00:40.701Z,14.02
2022-10-14T13:03:48.551Z,14.01
2022-10-14T13:07:41.214Z,13.93
2022-10-14T13:10:50.561Z,13.89
2022-10-14T13:14:02.676Z,13.84
2022-10-14T13:17:30.140Z,13.77
2022-10-14T13:20:52.708Z,13.81
2022-10-14T13:23:57.886Z,13.82
2022-10-14T13:27:16.717Z,13.84
2022-10-14T13:30:33.738Z,13.90
2022-10-14T13:33:45.431Z,13.92
2022-10-14T13:37:05.388Z,13.96
2022-10-14T13:40:24.151Z,14.03
2022-10-14T13:43:42.659Z,14.00
2022-10-14T13:46:49.756Z,14.11
2022-10-14T13:49:55.180Z,14.07
2022-10-14T13:53:04.904Z,14.13
2022-10-14T13:56:23.379Z,14.10
2022-10-14T13:59:44.189Z,14.09
2022-10-14T14:02:57.651Z,14.08
2022-10-14T14:06:04.633Z,13.99
2022-10-14T14:09:10.024Z,13.91
2022-10-14T14:12:15.362Z,13.92
2022-10-14T14:15:26.743Z,13.90
2022-10-14T14:18:55.729Z,13.86
2022-10-14T14:22:18.630Z,13.85
2022-10-14T14:25:35.726Z,13.84
2022-10-14T14:28:48.965Z,13.74
2022-10-14T14:32:05.980Z,13.72
2022-10-14T14:35:16.995Z,13.70
2022-10-14T14:38:30.897Z,13.70
2022-10-14T14:41:35.729Z,13.60
2022-10-14T14:44:43.454Z,13.66
2022-10-14T14:47:51.888Z,13.57
2022-10-14T14:50:59.360Z,13.63
2022-10-14T14:54:04.892Z,13.68
2022-10-14T14:57:10.940Z,13.62
2022-10-14T15:00:20.982Z,13.57
2022-10-14T15:03:30.763Z,13.57
2022-10-14T15:06:36.651Z,13.59
2022-10-14T15:09:45.535Z,13.56
2022-10-14T15:12:54.702Z,13.50
2022-10-14T15:16:02.067Z,13.47
2022-10-14T15:19:38.202Z,13.51
2022-10-14T15:22:44.794Z,13.46
2022-10-14T15:25:59.094Z,13.41
2022-10-14T15:29:07.387Z,13.37
2022-10-14T15:32:16.487Z,13.35
2022-10-14T15:35:23.613Z,13.31
2022-10-14T15:38:28.919Z,13.29
2022-10-14T15:41:33.952Z,13.20
2022-10-14T15:44:38.678Z,13.22
2022-10-14T15:47:43.680Z,13.21
2022-10-14T15:50:50.071Z,13.18
2022-10-14T15:53:55.076Z,13.16
2022-10-14T15:57:00.165Z,13.13
2022-10-14T16:00:05.994Z,13.13
2022-10-14T16:03:17.770Z,13.09
2022-10-14T16:06:24.609Z,13.08
2022-10-14T16:09:29.559Z,13.02
2022-10-14T16:12:34.419Z,13.05
2022-10-14T16:15:49.706Z,13.05
2022-10-14T16:18:56.426Z,13.00
2022-10-14T16:22:02.602Z,12.99
2022-10-14T16:25:10.244Z,12.89
2022-10-14T16:28:15.870Z,12.80
2022-10-14T16:31:21.260Z,12.85
2022-10-14T16:34:31.072Z,12.84
2022-10-14T16:37:38.219Z,12.73
2022-10-14T16:40:43.051Z,12.66
2022-10-14T16:43:51.331Z,12.63
2022-10-14T16:47:15.887Z,12.60
2022-10-14T16:50:20.935Z,12.63
2022-10-14T16:53:44.928Z,12.57
2022-10-14T16:56:56.942Z,12.45
2022-10-14T17:00:01.816Z,12.38
2022-10-14T17:03:06.744Z,12.35
2022-10-14T17:06:14.022Z,12.28
2022-10-14T17:09:20.828Z,12.35
2022-10-14T17:12:26.477Z,12.29
2022-10-14T17:15:31.416Z,12.27
2022-10-14T17:18:37.113Z,12.30
2022-10-14T17:21:42.292Z,12.25
2022-10-14T17:24:50.280Z,12.24
2022-10-14T17:27:55.063Z,12.11
2022-10-14T17:31:01.000Z,12.13
2022-10-14T17:34:06.418Z,12.12
2022-10-14T17:37:12.213Z,12.14
2022-10-14T17:40:18.601Z,12.09
2022-10-14T17:43:24.088Z,12.07
2022-10-14T17:46:31.562Z,11.94
2022-10-14T17:49:37.426Z,11.88
2022-10-14T17:52:42.192Z,11.87
2022-10-14T17:55:49.308Z,11.93
2022-10-14T17:58:57.582Z,11.96
2022-10-14T18:02:03.423Z,12.03
2022-10-14T18:05:09.676Z,11.95
2022-10-14T18:08:14.722Z,11.94
2022-10-14T18:11:23.042Z,11.97
2022-10-14T18:14:27.981Z,11.87
2022-10-14T18:17:32.889Z,11.92
2022-10-14T18:20:38.255Z,11.94
2022-10-14T18:23:43.610Z,11.95
2022-10-14T18:26:51.175Z,11.96
2022-10-14T18:29:55.961Z,11.95
2022-10-14T18:33:00.731Z,11.92
2022-10-14T18:36:07.388Z,11.83
2022-10-14T18:39:13.199Z,11.89
2022-10-14T18:42:20.942Z,11.92
2022-10-14T18:45:25.956Z,11.89
2022-10-14T18:48:31.362Z,11.92
2022-10-14T18:51:38.416Z,11.88
2022-10-14T18:54:43.169Z,11.89
2022-10-14T18:57:49.335Z,11.93
2022-10-14T19:00:54.295Z,11.85
2022-10-14T19:03:59.169Z,11.87
2022-10-14T19:07:04.258Z,11.81
2022-10-14T19:10:11.057Z,11.89
2022-10-14T19:13:17.437Z,11.95
2022-10-14T19:16:24.024Z,11.95
2022-10-14T19:19:28.863Z,11.94
2022-10-14T19:22:33.922Z,11.90
2022-10-14T19:25:40.126Z,11.92
2022-10-14T19:28:46.456Z,11.91
2022-10-14T19:31:54.343Z,11.88
2022-10-14T19:35:01.010Z,11.90
2022-10-14T19:38:06.039Z,11.93
2022-10-14T19:41:11.448Z,11.93
2022-10-14T19:44:17.939Z,11.92
2022-10-14T19:47:23.003Z,11.97
2022-10-14T19:50:28.143Z,11.97
2022-10-14T19:53:32.962Z,12.03
2022-10-14T19:56:37.847Z,12.05
2022-10-14T19:59:44.070Z,12.03
2022-10-14T20:02:49.481Z,12.11
2022-10-14T20:06:00.776Z,12.11
2022-10-14T20:09:06.258Z,12.04
2022-10-14T20:12:11.248Z,12.08
2022-10-14T20:15:17.898Z,12.06
2022-10-14T20:18:23.075Z,12.03
2022-10-14T20:21:30.094Z,12.11
2022-10-14T20:24:38.746Z,12.05
2022-10-14T20:27:43.845Z,12.08
2022-10-14T20:30:50.088Z,12.07
2022-10-14T20:33:57.158Z,11.97
2022-10-14T20:37:02.095Z,11.95
2022-10-14T20:40:08.685Z,11.91
2022-10-14T20:43:13.596Z,11.89
2022-10-14T20:46:21.838Z,11.88
2022-10-14T20:49:26.651Z,11.81
2022-10-14T20:52:31.664Z,11.79
2022-10-14T20:55:36.695Z,11.81
2022-10-14T20:58:42.396Z,11.74
2022-10-14T21:01:49.087Z,11.72
2022-10-14T21:04:54.272Z,11.75
2022-10-14T21:07:58.998Z,11.68
2022-10-14T21:11:09.187Z,11.74
2022-10-14T21:14:17.705Z,11.76
2022-10-14T21:17:23.871Z,11.73
2022-10-14T21:20:28.562Z,11.72
2022-10-14T21:23:33.535Z,11.69
2022-10-14T21:26:38.264Z,11.77
2022-10-14T21:29:43.222Z,11.77
2022-10-14T21:32:49.332Z,11.63
2022-10-14T21:35:54.056Z,11.62
2022-10-14T21:39:00.936Z,11.61
2022-10-14T21:42:06.027Z,11.61
2022-10-14T21:45:12.796Z,11.65
2022-10-14T21:48:19.991Z,11.61
2022-10-14T21:51:26.721Z,11.67
2022-10-14T21:54:31.752Z,11.65
2022-10-14T21:57:36.460Z,11.64
2022-10-14T22:00:41.176Z,11.63
2022-10-14T22:03:47.376Z,11.63
2022-10-14T22:06:52.213Z,11.54
2022-10-14T22:09:56.927Z,11.55
2022-10-14T22:13:01.751Z,11.53
2022-10-14T22:16:07.031Z,11.48
2022-10-14T22:19:14.732Z,11.53
2022-10-14T22:22:19.753Z,11.52
2022-10-14T22:25:24.718Z,11.59
2022-10-14T22:28:30.737Z,11.62
2022-10-14T22:31:36.552Z,11.66
2022-10-14T22:34:44.875Z,11.71
2022-10-14T22:37:49.638Z,11.76
2022-10-14T22:40:54.733Z,11.80
2022-10-14T22:44:00.708Z,11.81
2022-10-14T22:47:05.903Z,11.80
2022-10-14T22:50:12.276Z,11.83
2022-10-14T22:53:17.393Z,11.79
2022-10-14T22:56:25.846Z,11.84
2022-10-14T22:59:30.931Z,11.89
2022-10-14T23:02:35.753Z,11.84
2022-10-14T23:05:42.019Z,11.85
2022-10-14T23:08:47.187Z,11.91
2022-10-14T23:11:51.882Z,11.90
2022-10-14T23:14:56.886Z,11.96
2022-10-14T23:18:01.678Z,11.97
2022-10-14T23:21:13.137Z,11.97
2022-10-14T23:24:17.908Z,12.03
2022-10-14T23:27:23.066Z,12.03
2022-10-14T23:30:28.047Z,12.04
2022-10-14T23:33:34.016Z,12.06
2022-10-14T23:36:40.456Z,12.08
2022-10-14T23:39:45.261Z,12.09
2022-10-14T23:42:50.404Z,12.11
2022-10-14T23:45:55.252Z,12.09
2022-10-14T23:49:07.520Z,12.11
2022-10-14T23:52:20.324Z,12.12
2022-10-14T23:55:25.067Z,12.13
2022-10-14T23:58:30.478Z,12.09
